Time;durP1;ratioP1;P1;durP2;ratioP2;P2;SDS_P1;SDS_P2;PMS_P1;PMS_P2;Temp;Humidity;BMP_temperature;BMP_pressure;BME280_temperature;BME280_humidity;BME280_pressure;Samples;Min_cycle;Max_cycle;Signal;HPM_P1;HPM_P2
2023/05/06 00:00:31;;;;;;;12.13;4.27;;;15.00;1.00;;;;;;6334508;22;20525;-77
2023/05/06 00:02:59;;;;;;;7.03;5.10;;;15.00;1.00;;;;;;6333633;22;20147;-75
2023/05/06 00:05:25;;;;;;;7.70;4.80;;;15.10;1.00;;;;;;6332756;22;20587;-75
2023/05/06 00:07:51;;;;;;;5.67;4.53;;;15.20;1.00;;;;;;6333919;22;20372;-74
2023/05/06 00:10:17;;;;;;;6.07;4.40;;;15.30;1.00;;;;;;6334232;22;20379;-75
2023/05/06 00:12:42;;;;;;;6.47;4.50;;;15.30;1.00;;;;;;6333826;22;20147;-76
2023/05/06 00:15:08;;;;;;;5.20;4.70;;;15.30;1.00;;;;;;6333208;22;20146;-75
2023/05/06 00:17:34;;;;;;;6.13;4.53;;;15.40;1.00;;;;;;6333821;22;20146;-75
2023/05/06 00:19:59;;;;;;;5.77;4.77;;;15.30;1.00;;;;;;6334184;22;20268;-77
2023/05/06 00:22:25;;;;;;;8.20;5.00;;;15.30;1.00;;;;;;6333635;22;20143;-75
2023/05/06 00:24:50;;;;;;;6.77;4.57;;;15.30;1.00;;;;;;6333952;22;20150;-76
2023/05/06 00:27:16;;;;;;;9.23;5.47;;;15.20;1.00;;;;;;6305847;22;20605;-74
2023/05/06 00:29:41;;;;;;;7.50;5.43;;;15.10;1.00;;;;;;6334296;22;20169;-75
2023/05/06 00:32:07;;;;;;;6.93;5.60;;;15.20;1.00;;;;;;6333837;22;20157;-74
2023/05/06 00:34:32;;;;;;;7.43;6.13;;;15.10;1.00;;;;;;6333769;22;20582;-75
2023/05/06 00:36:58;;;;;;;7.53;6.03;;;15.10;1.00;;;;;;6333814;22;20474;-75
2023/05/06 00:39:24;;;;;;;8.97;6.10;;;15.10;1.00;;;;;;6333594;22;20178;-76
2023/05/06 00:41:50;;;;;;;11.00;6.03;;;15.10;1.00;;;;;;6333399;22;20531;-75
2023/05/06 00:44:15;;;;;;;8.47;6.10;;;15.20;1.00;;;;;;6331597;22;20510;-74
2023/05/06 00:46:41;;;;;;;7.67;6.07;;;15.20;1.00;;;;;;6333741;22;20377;-75
2023/05/06 00:49:07;;;;;;;7.23;6.20;;;15.10;1.00;;;;;;6333167;22;20215;-74
2023/05/06 00:51:33;;;;;;;8.17;6.20;;;15.10;1.00;;;;;;6333774;22;20369;-76
2023/05/06 00:53:59;;;;;;;8.13;6.43;;;15.10;1.00;;;;;;6333583;22;20170;-76
2023/05/06 00:56:25;;;;;;;8.23;6.37;;;15.20;1.00;;;;;;6333766;22;20139;-75
2023/05/06 00:58:52;;;;;;;7.80;6.90;;;15.10;1.00;;;;;;6332649;22;20389;-75
2023/05/06 01:01:17;;;;;;;6.70;5.67;;;15.10;1.00;;;;;;6332971;22;20896;-75
2023/05/06 01:03:43;;;;;;;7.97;6.20;;;15.10;1.00;;;;;;6333708;22;20488;-75
2023/05/06 01:06:22;;;;;;;7.07;5.90;;;15.10;1.00;;;;;;6332718;22;20226;-76
2023/05/06 01:08:59;;;;;;;6.00;5.40;;;15.10;1.00;;;;;;6333870;22;20162;-75
2023/05/06 01:11:44;;;;;;;6.87;5.90;;;15.00;1.00;;;;;;6333753;22;20392;-76
2023/05/06 01:14:38;;;;;;;10.40;6.20;;;15.00;1.00;;;;;;6333677;22;20401;-75
2023/05/06 01:17:07;;;;;;;8.57;6.60;;;14.90;1.00;;;;;;6332484;22;20353;-75
2023/05/06 01:19:40;;;;;;;8.87;6.23;;;14.90;1.00;;;;;;6333005;22;20397;-75
2023/05/06 01:22:07;;;;;;;8.47;6.73;;;14.90;1.00;;;;;;6332346;22;20987;-74
2023/05/06 01:24:37;;;;;;;11.53;7.03;;;14.90;1.00;;;;;;6333576;22;20404;-75
2023/05/06 01:27:03;;;;;;;8.10;7.10;;;14.90;1.00;;;;;;6332845;22;20373;-74
2023/05/06 01:29:28;;;;;;;9.70;6.93;;;14.90;1.00;;;;;;6305296;22;20407;-74
2023/05/06 01:32:06;;;;;;;16.50;6.80;;;14.90;1.00;;;;;;6333091;22;20143;-78
2023/05/06 01:34:46;;;;;;;10.97;6.80;;;14.90;1.00;;;;;;6333551;22;20172;-77
2023/05/06 01:37:32;;;;;;;9.97;6.80;;;14.80;1.00;;;;;;6333752;22;20738;-75
2023/05/06 01:39:59;;;;;;;7.70;6.20;;;14.70;1.00;;;;;;6332524;22;20405;-75
2023/05/06 01:42:26;;;;;;;10.70;6.80;;;14.70;1.00;;;;;;6332819;22;20368;-77
2023/05/06 01:44:55;;;;;;;8.87;6.63;;;14.60;1.00;;;;;;6332258;22;20437;-75
2023/05/06 01:47:21;;;;;;;10.60;6.33;;;14.50;1.00;;;;;;6333387;22;20400;-76
2023/05/06 01:49:47;;;;;;;8.67;6.10;;;14.40;1.00;;;;;;6332665;22;20764;-75
2023/05/06 01:52:14;;;;;;;11.47;6.20;;;14.40;1.00;;;;;;6333141;22;20536;-74
2023/05/06 01:54:40;;;;;;;7.63;6.60;;;14.40;1.00;;;;;;6305430;22;20484;-75
2023/05/06 01:57:06;;;;;;;8.33;6.50;;;14.40;1.00;;;;;;6333269;22;20369;-74
2023/05/06 01:59:31;;;;;;;13.43;6.10;;;14.40;1.00;;;;;;6305577;22;20158;-77
2023/05/06 02:01:57;;;;;;;8.70;6.00;;;14.40;1.00;;;;;;6331767;22;20197;-74
2023/05/06 02:04:22;;;;;;;8.53;6.10;;;14.40;1.00;;;;;;6332764;22;20146;-76
2023/05/06 02:06:48;;;;;;;7.00;5.80;;;14.40;1.00;;;;;;6305018;22;20151;-75
2023/05/06 02:09:13;;;;;;;7.90;6.00;;;14.40;1.00;;;;;;6331966;22;20166;-75
2023/05/06 02:11:39;;;;;;;6.43;5.73;;;14.00;1.00;;;;;;6333273;22;20563;-75
2023/05/06 02:14:04;;;;;;;7.97;5.80;;;14.30;1.00;;;;;;6304201;22;20440;-74
2023/05/06 02:16:30;;;;;;;9.87;6.40;;;16.30;1.00;;;;;;6333349;22;20143;-74
2023/05/06 02:18:55;;;;;;;10.50;6.03;;;14.20;1.00;;;;;;6332463;22;20218;-74
2023/05/06 02:21:22;;;;;;;11.33;6.70;;;14.20;1.00;;;;;;6332617;22;20222;-75
2023/05/06 02:23:47;;;;;;;10.47;6.83;;;14.10;1.00;;;;;;6333324;22;20466;-74
2023/05/06 02:26:13;;;;;;;11.07;6.63;;;14.10;1.00;;;;;;6332396;22;20421;-75
2023/05/06 02:28:38;;;;;;;8.10;6.10;;;14.10;1.00;;;;;;6332343;22;20241;-76
2023/05/06 02:31:04;;;;;;;9.60;6.50;;;14.00;1.00;;;;;;6332885;22;20270;-75
2023/05/06 02:33:30;;;;;;;8.63;6.20;;;14.00;1.00;;;;;;6332014;22;20241;-74
2023/05/06 02:35:55;;;;;;;7.17;5.87;;;13.90;1.00;;;;;;6332793;22;20189;-76
2023/05/06 02:38:21;;;;;;;7.13;6.43;;;13.90;1.00;;;;;;6333046;22;20677;-76
2023/05/06 02:40:46;;;;;;;10.70;5.90;;;13.90;1.00;;;;;;6332906;22;20150;-74
2023/05/06 02:43:12;;;;;;;8.23;5.77;;;13.80;1.00;;;;;;6332757;22;20157;-75
2023/05/06 02:45:38;;;;;;;9.97;6.30;;;13.70;1.00;;;;;;6333038;22;20143;-75
2023/05/06 02:48:03;;;;;;;12.57;7.17;;;13.60;1.00;;;;;;6332238;22;20513;-74
2023/05/06 02:50:29;;;;;;;8.83;6.23;;;13.60;1.00;;;;;;6332553;22;20467;-74
2023/05/06 02:52:54;;;;;;;9.20;6.47;;;13.60;1.00;;;;;;6332044;22;20150;-74
2023/05/06 02:55:20;;;;;;;10.57;6.37;;;13.60;1.00;;;;;;6333001;22;20174;-74
2023/05/06 02:57:45;;;;;;;10.80;6.73;;;13.50;1.00;;;;;;6332413;22;20147;-74
2023/05/06 03:00:11;;;;;;;8.80;6.53;;;13.50;1.00;;;;;;6332189;22;20192;-75
2023/05/06 03:02:37;;;;;;;7.77;6.50;;;13.40;1.00;;;;;;6332334;22;20583;-74
2023/05/06 03:05:03;;;;;;;9.47;6.23;;;13.40;1.00;;;;;;6332445;22;20369;-74
2023/05/06 03:07:29;;;;;;;8.97;6.20;;;13.30;1.00;;;;;;6333042;22;20579;-75
2023/05/06 03:09:54;;;;;;;17.10;6.67;;;13.30;1.00;;;;;;6304612;22;20269;-75
2023/05/06 03:12:20;;;;;;;9.23;6.37;;;13.20;1.00;;;;;;6332228;22;20426;-74
2023/05/06 03:14:46;;;;;;;11.53;6.37;;;13.20;1.00;;;;;;6334150;22;20263;-75
2023/05/06 03:17:11;;;;;;;9.00;6.80;;;13.20;1.00;;;;;;6334223;22;20173;-75
2023/05/06 03:19:37;;;;;;;6.47;5.77;;;13.20;1.00;;;;;;6334732;22;20246;-75
2023/05/06 03:22:02;;;;;;;10.33;6.97;;;13.20;1.00;;;;;;6334665;22;20229;-77
2023/05/06 03:24:28;;;;;;;6.90;6.20;;;13.20;1.00;;;;;;6334428;22;20139;-75
2023/05/06 03:26:53;;;;;;;8.47;6.00;;;13.10;1.00;;;;;;6333768;22;20150;-77
2023/05/06 03:29:19;;;;;;;9.40;6.17;;;13.10;1.00;;;;;;6306782;22;20292;-75
2023/05/06 03:31:47;;;;;;;8.63;6.60;;;13.10;1.00;;;;;;6334964;22;20200;-75
2023/05/06 03:34:13;;;;;;;8.07;6.70;;;13.00;1.00;;;;;;6306837;22;20618;-74
2023/05/06 03:36:38;;;;;;;13.33;8.23;;;13.10;1.00;;;;;;6334646;22;20368;-75
2023/05/06 03:39:04;;;;;;;9.20;6.60;;;13.10;1.00;;;;;;6334206;22;20511;-74
2023/05/06 03:41:29;;;;;;;7.60;6.80;;;13.10;1.00;;;;;;6333998;22;20196;-74
2023/05/06 03:43:55;;;;;;;11.70;6.93;;;13.10;1.00;;;;;;6333785;22;20150;-75
2023/05/06 03:46:21;;;;;;;10.20;7.63;;;13.10;1.00;;;;;;6334330;22;20147;-75
2023/05/06 03:48:46;;;;;;;9.57;7.80;;;13.00;1.00;;;;;;6331814;22;20188;-76
2023/05/06 03:51:12;;;;;;;10.70;7.73;;;13.00;1.00;;;;;;6332793;22;20157;-74
2023/05/06 03:53:37;;;;;;;11.10;7.30;;;13.00;1.00;;;;;;6333903;22;20163;-74
2023/05/06 03:56:03;;;;;;;8.23;7.33;;;13.00;1.00;;;;;;6333265;22;20243;-73
2023/05/06 03:58:29;;;;;;;10.43;7.30;;;13.00;1.00;;;;;;6334400;22;20238;-76
2023/05/06 04:00:54;;;;;;;8.10;7.27;;;13.00;1.00;;;;;;6334330;22;20209;-74
2023/05/06 04:03:20;;;;;;;8.83;6.63;;;12.90;1.00;;;;;;6333750;22;20153;-74
2023/05/06 04:05:47;;;;;;;8.50;6.90;;;12.90;1.00;;;;;;6333746;22;20155;-74
2023/05/06 04:08:12;;;;;;;9.90;7.43;;;12.90;1.00;;;;;;6333772;22;20167;-74
2023/05/06 04:10:39;;;;;;;7.93;6.30;;;12.80;1.00;;;;;;6334987;22;20909;-74
2023/05/06 04:13:05;;;;;;;9.53;6.87;;;12.80;1.00;;;;;;6333660;22;20556;-74
2023/05/06 04:15:33;;;;;;;10.20;6.27;;;12.80;1.00;;;;;;6334385;22;20369;-74
2023/05/06 04:17:59;;;;;;;9.80;6.70;;;12.80;1.00;;;;;;6305684;22;20166;-74
2023/05/06 04:20:24;;;;;;;6.80;6.10;;;12.80;1.00;;;;;;6333778;22;20376;-75
2023/05/06 04:22:50;;;;;;;8.63;6.70;;;12.80;1.00;;;;;;6306266;22;20233;-75
2023/05/06 04:25:18;;;;;;;12.13;7.30;;;12.90;1.00;;;;;;6332837;22;20170;-76
2023/05/06 04:27:44;;;;;;;9.33;6.90;;;13.00;1.00;;;;;;6333366;22;20361;-73
2023/05/06 04:30:10;;;;;;;8.27;5.93;;;12.90;1.00;;;;;;6333057;22;20755;-75
2023/05/06 04:32:37;;;;;;;9.90;6.03;;;13.00;1.00;;;;;;6334141;22;20435;-74
2023/05/06 04:35:03;;;;;;;9.40;6.40;;;13.00;1.00;;;;;;6333050;22;20730;-74
2023/05/06 04:37:29;;;;;;;9.67;5.83;;;13.10;1.00;;;;;;6305619;22;20388;-76
2023/05/06 04:39:56;;;;;;;7.13;6.07;;;13.00;1.00;;;;;;6333741;22;20186;-75
2023/05/06 04:42:21;;;;;;;12.23;5.83;;;13.10;1.00;;;;;;6333242;22;20418;-74
2023/05/06 04:44:47;;;;;;;9.00;6.10;;;13.20;1.00;;;;;;6332959;22;20665;-74
2023/05/06 04:47:13;;;;;;;8.10;6.60;;;13.20;1.00;;;;;;6333613;22;20147;-74
2023/05/06 04:49:40;;;;;;;8.50;7.00;;;13.30;1.00;;;;;;6334088;22;20883;-74
2023/05/06 04:52:05;;;;;;;7.93;6.80;;;13.30;1.00;;;;;;6333255;22;20147;-74
2023/05/06 04:54:31;;;;;;;8.27;7.07;;;13.30;1.00;;;;;;6333357;22;20500;-74
2023/05/06 04:56:56;;;;;;;8.13;6.80;;;13.40;1.00;;;;;;6332504;22;20158;-74
2023/05/06 04:59:22;;;;;;;10.50;7.03;;;13.40;1.00;;;;;;6333968;22;20225;-74
2023/05/06 05:01:47;;;;;;;11.60;7.10;;;13.50;1.00;;;;;;6333608;22;20158;-74
2023/05/06 05:04:13;;;;;;;9.37;7.60;;;13.50;1.00;;;;;;6304573;22;20154;-74
2023/05/06 05:06:38;;;;;;;10.80;6.93;;;13.60;1.00;;;;;;6305595;22;20687;-74
2023/05/06 05:09:04;;;;;;;10.30;7.40;;;13.70;1.00;;;;;;6333022;22;20170;-74
2023/05/06 05:11:29;;;;;;;10.33;8.30;;;13.80;1.00;;;;;;6333376;22;20170;-74
2023/05/06 05:13:56;;;;;;;13.10;8.37;;;13.90;1.00;;;;;;6333857;22;20167;-74
2023/05/06 05:16:21;;;;;;;11.87;9.23;;;14.00;1.00;;;;;;6305856;22;20151;-75
2023/05/06 05:18:47;;;;;;;13.80;9.40;;;14.10;1.00;;;;;;6332862;22;20754;-75
2023/05/06 05:21:12;;;;;;;10.77;9.13;;;14.20;1.00;;;;;;6332889;22;20139;-73
2023/05/06 05:23:38;;;;;;;10.90;8.67;;;14.30;1.00;;;;;;6305164;22;20146;-75
2023/05/06 05:26:03;;;;;;;11.93;9.67;;;14.40;1.00;;;;;;6334332;22;20151;-75
2023/05/06 05:28:29;;;;;;;13.50;9.13;;;14.50;1.00;;;;;;6333150;22;20555;-74
2023/05/06 05:31:01;;;;;;;11.30;9.50;;;14.50;1.00;;;;;;6333355;22;20174;-74
2023/05/06 05:33:26;;;;;;;13.50;9.90;;;14.60;1.00;;;;;;6332330;22;20162;-74
2023/05/06 05:35:52;;;;;;;13.50;9.90;;;14.70;1.00;;;;;;6305680;22;20369;-76
2023/05/06 05:38:17;;;;;;;15.03;9.53;;;14.70;1.00;;;;;;6333104;22;20189;-75
2023/05/06 05:40:43;;;;;;;11.67;9.00;;;14.80;1.00;;;;;;6332933;22;20143;-75
2023/05/06 05:43:08;;;;;;;11.80;9.67;;;14.90;1.00;;;;;;6332883;22;20146;-75
2023/05/06 05:45:34;;;;;;;12.97;8.70;;;15.10;1.00;;;;;;6305047;22;20215;-76
2023/05/06 05:47:59;;;;;;;16.10;10.00;;;15.20;1.00;;;;;;6332095;22;20630;-74
2023/05/06 05:50:25;;;;;;;10.50;8.67;;;15.20;1.00;;;;;;6333971;22;20147;-75
2023/05/06 05:52:51;;;;;;;12.97;9.57;;;15.30;1.00;;;;;;6332906;22;20149;-75
2023/05/06 05:55:16;;;;;;;12.37;10.30;;;15.40;1.00;;;;;;6333109;22;20152;-75
2023/05/06 05:57:42;;;;;;;16.07;10.70;;;15.50;1.00;;;;;;6333641;22;20142;-75
2023/05/06 06:00:08;;;;;;;12.27;10.23;;;15.60;1.00;;;;;;6332752;22;20143;-75
2023/05/06 06:02:34;;;;;;;12.67;9.57;;;15.60;1.00;;;;;;6333741;22;20139;-74
2023/05/06 06:05:00;;;;;;;12.70;9.90;;;15.60;1.00;;;;;;6332301;22;20404;-75
2023/05/06 06:07:25;;;;;;;12.30;9.30;;;15.70;1.00;;;;;;6332112;22;20372;-78
2023/05/06 06:09:51;;;;;;;10.80;9.40;;;15.90;1.00;;;;;;6304594;22;20170;-74
2023/05/06 06:12:16;;;;;;;10.83;9.73;;;16.00;1.00;;;;;;6304723;22;20490;-74
2023/05/06 06:14:46;;;;;;;12.37;9.37;;;16.10;1.00;;;;;;6332866;22;20300;-76
2023/05/06 06:17:13;;;;;;;12.83;10.53;;;16.20;1.00;;;;;;6333584;22;20192;-75
2023/05/06 06:19:39;;;;;;;13.77;10.73;;;16.40;1.00;;;;;;6334797;22;20472;-75
2023/05/06 06:22:04;;;;;;;11.00;9.57;;;16.50;1.00;;;;;;6334860;22;20392;-79
2023/05/06 06:24:33;;;;;;;13.03;10.20;;;16.70;1.00;;;;;;6337432;22;20142;-76
2023/05/06 06:27:01;;;;;;;13.70;11.00;;;16.80;1.00;;;;;;6334906;22;20143;-78
2023/05/06 06:29:27;;;;;;;17.03;11.10;;;16.90;1.00;;;;;;6338705;22;20454;-77
2023/05/06 06:31:54;;;;;;;15.13;10.80;;;16.90;1.00;;;;;;6334839;22;20832;-75
2023/05/06 06:34:20;;;;;;;12.57;9.67;;;17.10;1.00;;;;;;6334023;22;20194;-75
2023/05/06 06:36:46;;;;;;;15.60;10.67;;;17.20;1.00;;;;;;6306879;22;20377;-75
2023/05/06 06:39:12;;;;;;;12.47;10.73;;;17.30;1.00;;;;;;6334670;22;20703;-75
2023/05/06 06:41:38;;;;;;;12.17;10.63;;;17.50;1.00;;;;;;6334551;22;20165;-75
2023/05/06 06:44:04;;;;;;;14.18;10.15;;;17.50;1.00;;;;;;6306111;22;20832;-76
2023/05/06 06:46:30;;;;;;;13.57;9.33;;;17.50;1.00;;;;;;6334056;22;20201;-74
2023/05/06 06:48:55;;;;;;;11.23;9.67;;;17.60;1.00;;;;;;6334112;22;20392;-77
2023/05/06 06:51:21;;;;;;;12.53;9.60;;;17.60;1.00;;;;;;6306708;22;20161;-75
2023/05/06 06:53:47;;;;;;;11.43;8.93;;;17.60;1.00;;;;;;6334304;22;20177;-76
2023/05/06 06:56:14;;;;;;;13.83;9.70;;;17.60;1.00;;;;;;6334672;22;20147;-76
2023/05/06 06:58:40;;;;;;;9.27;8.27;;;17.80;1.00;;;;;;6334394;22;20389;-76
2023/05/06 07:01:06;;;;;;;10.90;8.30;;;17.90;1.00;;;;;;6307071;22;20376;-76
2023/05/06 07:03:32;;;;;;;10.23;8.23;;;18.00;1.00;;;;;;6333601;22;20143;-76
2023/05/06 07:05:57;;;;;;;12.90;8.30;;;18.10;1.00;;;;;;6334727;22;20208;-75
2023/05/06 07:08:23;;;;;;;10.27;7.50;;;18.10;1.00;;;;;;6334236;22;20173;-75
2023/05/06 07:10:48;;;;;;;11.20;8.03;;;18.50;1.00;;;;;;6306564;22;20162;-75
2023/05/06 07:13:14;;;;;;;9.10;6.33;;;18.50;1.00;;;;;;6334159;22;20181;-77
2023/05/06 07:15:39;;;;;;;10.73;7.10;;;18.70;1.00;;;;;;6334295;22;20502;-75
2023/05/06 07:18:05;;;;;;;10.40;7.37;;;19.00;1.00;;;;;;6334657;22;20165;-75
2023/05/06 07:20:31;;;;;;;9.67;6.83;;;19.10;1.00;;;;;;6334106;22;20150;-75
2023/05/06 07:22:56;;;;;;;9.47;6.57;;;19.10;1.00;;;;;;6334332;22;20369;-75
2023/05/06 07:25:22;;;;;;;8.20;6.13;;;19.20;1.00;;;;;;6334003;22;20614;-75
2023/05/06 07:27:48;;;;;;;9.40;6.07;;;19.50;1.00;;;;;;6334329;22;20146;-75
2023/05/06 07:30:13;;;;;;;7.97;6.77;;;19.60;1.00;;;;;;6334356;22;20142;-75
2023/05/06 07:32:42;;;;;;;8.00;6.60;;;20.00;1.00;;;;;;6306020;22;20151;-75
2023/05/06 07:35:08;;;;;;;7.57;5.30;;;20.40;1.00;;;;;;6334272;22;20245;-76
2023/05/06 07:37:33;;;;;;;7.90;5.50;;;20.70;1.00;;;;;;6334310;22;20430;-76
2023/05/06 07:39:59;;;;;;;10.37;5.00;;;20.80;1.00;;;;;;6333845;22;20880;-75
2023/05/06 07:42:25;;;;;;;7.03;4.80;;;21.00;1.00;;;;;;6334021;22;20684;-75
2023/05/06 07:44:50;;;;;;;7.20;4.20;;;21.10;1.00;;;;;;6334685;22;20219;-75
2023/05/06 07:47:30;;;;;;;5.90;4.50;;;21.40;1.00;;;;;;6334322;22;20143;-75
2023/05/06 07:49:56;;;;;;;7.10;4.80;;;21.70;1.00;;;;;;6334299;22;20162;-75
2023/05/06 07:52:22;;;;;;;4.70;3.80;;;21.90;1.00;;;;;;6334056;22;20373;-75
2023/05/06 07:54:48;;;;;;;5.17;4.10;;;22.00;1.00;;;;;;6334081;22;20162;-75
2023/05/06 07:57:14;;;;;;;4.70;3.80;;;22.00;1.00;;;;;;6307828;22;20391;-80
2023/05/06 07:59:41;;;;;;;4.77;3.10;;;21.70;1.00;;;;;;6335646;22;20601;-77
2023/05/06 08:02:06;;;;;;;4.90;3.37;;;21.90;1.00;;;;;;6335468;22;20460;-75
2023/05/06 08:04:32;;;;;;;4.43;3.40;;;22.10;1.00;;;;;;6339542;22;20395;-75
2023/05/06 08:06:57;;;;;;;4.30;3.33;;;22.50;1.00;;;;;;6336058;22;20152;-75
2023/05/06 08:09:23;;;;;;;4.30;3.40;;;22.50;1.00;;;;;;6335186;22;20165;-76
2023/05/06 08:11:49;;;;;;;6.50;3.90;;;22.60;1.00;;;;;;6335457;22;20229;-75
2023/05/06 08:14:15;;;;;;;7.33;4.27;;;22.90;1.00;;;;;;6334977;22;20475;-75
2023/05/06 08:16:40;;;;;;;6.17;4.50;;;22.80;1.00;;;;;;6335013;22;20365;-75
2023/05/06 08:19:06;;;;;;;5.97;4.40;;;22.80;1.00;;;;;;6334845;22;20163;-75
2023/05/06 08:21:31;;;;;;;6.27;3.83;;;22.80;1.00;;;;;;6335220;22;20585;-75
2023/05/06 08:23:57;;;;;;;5.07;3.70;;;23.20;1.00;;;;;;6333549;22;20157;-74
2023/05/06 08:26:22;;;;;;;3.97;2.90;;;23.90;1.00;;;;;;6334484;22;20146;-76
2023/05/06 08:28:48;;;;;;;4.20;3.03;;;24.10;1.00;;;;;;6335655;22;20170;-76
2023/05/06 08:31:13;;;;;;;4.90;3.10;;;24.40;1.00;;;;;;6335890;22;20232;-74
2023/05/06 08:33:39;;;;;;;4.20;3.10;;;25.20;1.00;;;;;;6335413;22;20226;-76
2023/05/06 08:36:05;;;;;;;4.40;3.03;;;26.20;1.00;;;;;;6336527;22;20138;-76
2023/05/06 08:38:30;;;;;;;4.27;2.70;;;27.30;1.00;;;;;;6335462;22;20630;-77
2023/05/06 08:40:59;;;;;;;5.60;2.90;;;27.30;1.00;;;;;;6336007;22;20222;-76
2023/05/06 08:43:26;;;;;;;3.87;2.50;;;27.30;1.00;;;;;;6335470;22;20165;-76
2023/05/06 08:45:52;;;;;;;4.00;2.70;;;28.00;1.00;;;;;;6335305;22;20146;-76
2023/05/06 08:48:18;;;;;;;3.47;2.30;;;29.00;1.00;;;;;;6335785;22;20598;-76
2023/05/06 08:50:43;;;;;;;3.80;2.40;;;29.20;1.00;;;;;;6335318;22;20142;-76
2023/05/06 08:53:13;;;;;;;4.25;2.35;;;29.00;1.00;;;;;;6335407;22;20211;-77
2023/05/06 08:55:40;;;;;;;3.05;2.40;;;28.50;1.00;;;;;;6335496;22;20145;-76
2023/05/06 08:58:07;;;;;;;4.60;2.70;;;28.10;1.00;;;;;;6335672;22;20185;-76
2023/05/06 09:00:33;;;;;;;3.75;2.53;;;28.20;1.00;;;;;;6307702;22;20551;-76
2023/05/06 09:02:58;;;;;;;4.38;2.40;;;28.50;1.00;;;;;;6335400;22;20274;-76
2023/05/06 09:05:24;;;;;;;4.07;2.67;;;28.40;1.00;;;;;;6335350;22;20191;-77
2023/05/06 09:07:49;;;;;;;3.83;2.70;;;29.50;1.00;;;;;;6335566;22;20561;-76
2023/05/06 09:10:16;;;;;;;3.08;2.40;;;29.60;1.00;;;;;;6335795;22;20273;-76
2023/05/06 09:12:42;;;;;;;6.50;2.65;;;30.70;1.00;;;;;;6335409;22;20146;-76
2023/05/06 09:15:09;;;;;;;13.15;3.10;;;30.60;1.00;;;;;;6335512;22;20570;-76
2023/05/06 09:17:35;;;;;;;4.20;2.10;;;29.90;1.00;;;;;;6335512;22;20147;-77
2023/05/06 09:20:01;;;;;;;4.85;2.45;;;29.00;1.00;;;;;;6335437;22;20545;-77
2023/05/06 09:22:28;;;;;;;4.22;2.30;;;28.40;1.00;;;;;;6335131;22;20168;-76
2023/05/06 09:24:55;;;;;;;5.65;2.80;;;27.90;1.00;;;;;;6335065;22;20142;-76
2023/05/06 09:27:30;;;;;;;4.00;2.80;;;27.60;1.00;;;;;;6335393;22;20141;-77
2023/05/06 09:30:10;;;;;;;3.23;2.43;;;27.20;1.00;;;;;;6335307;22;20161;-76
2023/05/06 09:32:36;;;;;;;3.00;2.10;;;27.20;1.00;;;;;;6334834;22;20145;-76
2023/05/06 09:35:02;;;;;;;3.77;2.33;;;27.30;1.00;;;;;;6307646;22;20496;-76
2023/05/06 09:37:28;;;;;;;4.27;2.60;;;27.00;1.00;;;;;;6335271;22;20154;-74
2023/05/06 09:39:59;;;;;;;4.90;2.30;;;26.90;1.00;;;;;;6334947;22;20173;-76
2023/05/06 09:42:27;;;;;;;3.37;2.43;;;26.70;1.00;;;;;;6307292;22;20177;-75
2023/05/06 09:44:58;;;;;;;5.33;2.67;;;26.70;1.00;;;;;;6335008;22;20146;-75
2023/05/06 09:47:26;;;;;;;4.10;2.77;;;26.60;1.00;;;;;;6335358;22;20142;-75
2023/05/06 09:49:56;;;;;;;4.33;2.20;;;26.50;1.00;;;;;;6335051;22;20553;-75
2023/05/06 09:52:22;;;;;;;3.70;2.60;;;26.80;1.00;;;;;;6334993;22;20134;-76
2023/05/06 09:54:50;;;;;;;5.87;2.93;;;27.40;1.00;;;;;;6334795;22;20636;-76
2023/05/06 09:57:17;;;;;;;3.30;2.13;;;28.60;1.00;;;;;;6335593;22;20146;-76
2023/05/06 09:59:43;;;;;;;3.70;2.40;;;29.70;1.00;;;;;;6334942;22;20162;-76
2023/05/06 10:02:12;;;;;;;4.10;2.63;;;29.60;1.00;;;;;;6334697;22;20214;-76
2023/05/06 10:04:40;;;;;;;5.15;2.88;;;29.70;1.00;;;;;;6334646;22;20221;-76
2023/05/06 10:07:12;;;;;;;2.78;1.92;;;29.40;1.00;;;;;;6335141;22;20150;-76
2023/05/06 10:09:40;;;;;;;3.17;2.38;;;29.80;1.00;;;;;;6306995;22;20169;-76
2023/05/06 10:12:07;;;;;;;5.75;2.20;;;29.80;1.00;;;;;;6334977;22;20173;-76
2023/05/06 10:14:37;;;;;;;3.78;2.45;;;29.20;1.00;;;;;;6334386;22;20169;-76
2023/05/06 10:17:10;;;;;;;5.20;2.70;;;28.60;1.00;;;;;;6335489;22;20482;-76
2023/05/06 10:19:39;;;;;;;5.05;2.70;;;28.40;1.00;;;;;;6306800;22;20248;-78
2023/05/06 10:22:39;;;;;;;3.63;2.42;;;30.00;1.00;;;;;;6334633;22;20142;-76
2023/05/06 10:25:15;;;;;;;5.13;2.35;;;31.60;1.00;;;;;;6307350;22;20143;-77
2023/05/06 10:27:43;;;;;;;4.68;2.40;;;33.40;1.00;;;;;;6334841;22;20130;-76
2023/05/06 10:30:10;;;;;;;3.60;2.50;;;33.40;1.00;;;;;;6334796;22;20598;-76
2023/05/06 10:32:40;;;;;;;4.45;2.50;;;34.20;1.00;;;;;;6334510;22;20570;-76
2023/05/06 10:35:12;;;;;;;3.78;2.42;;;34.60;1.00;;;;;;6334686;22;20189;-76
2023/05/06 10:37:39;;;;;;;4.00;2.38;;;34.30;1.00;;;;;;6334570;22;20130;-76
2023/05/06 10:40:08;;;;;;;3.60;2.38;;;34.20;1.00;;;;;;6335340;22;20169;-78
2023/05/06 10:42:34;;;;;;;3.20;2.35;;;32.20;1.00;;;;;;6334013;22;20176;-76
2023/05/06 10:45:02;;;;;;;4.40;2.42;;;30.60;1.00;;;;;;6334758;22;20160;-76
2023/05/06 10:47:48;;;;;;;3.10;2.00;;;29.20;1.00;;;;;;6306848;22;20513;-74
2023/05/06 10:50:26;;;;;;;3.00;2.20;;;28.60;1.00;;;;;;6334308;22;20467;-77
2023/05/06 10:52:57;;;;;;;4.30;2.67;;;28.70;1.00;;;;;;6334196;22;20145;-76
2023/05/06 10:55:25;;;;;;;4.50;2.55;;;28.90;1.00;;;;;;6306723;22;20153;-76
2023/05/06 10:57:55;;;;;;;3.20;2.20;;;28.70;1.00;;;;;;6334665;22;20189;-75
2023/05/06 11:00:21;;;;;;;5.50;2.10;;;28.70;1.00;;;;;;6334719;22;20143;-76
2023/05/06 11:02:53;;;;;;;3.90;2.27;;;28.10;1.00;;;;;;6334356;22;20601;-76
2023/05/06 11:05:19;;;;;;;3.17;2.40;;;27.60;1.00;;;;;;6334296;22;20470;-75
2023/05/06 11:07:44;;;;;;;4.93;2.50;;;26.80;1.00;;;;;;6334615;22;20146;-75
2023/05/06 11:10:10;;;;;;;3.60;2.43;;;26.70;1.00;;;;;;6334649;22;20195;-78
2023/05/06 11:12:49;;;;;;;4.03;2.40;;;26.80;1.00;;;;;;6333988;22;20225;-78
2023/05/06 11:15:25;;;;;;;3.57;2.23;;;29.00;1.00;;;;;;6306702;22;20183;-76
2023/05/06 11:17:55;;;;;;;5.20;2.30;;;33.50;1.00;;;;;;6333988;22;20585;-76
2023/05/06 11:20:21;;;;;;;3.58;2.03;;;33.70;1.00;;;;;;6334447;22;20479;-77
2023/05/06 11:22:47;;;;;;;4.68;2.45;;;32.70;1.00;;;;;;6334055;22;20142;-76
2023/05/06 11:25:13;;;;;;;2.78;2.00;;;30.90;1.00;;;;;;6334397;22;20142;-77
2023/05/06 11:27:38;;;;;;;3.20;2.08;;;32.20;1.00;;;;;;6334311;22;20513;-76
2023/05/06 11:30:05;;;;;;;4.80;2.20;;;32.30;1.00;;;;;;6334401;22;20142;-77
2023/05/06 11:32:32;;;;;;;3.83;1.98;;;32.10;1.00;;;;;;6306211;22;20154;-75
2023/05/06 11:34:58;;;;;;;3.63;2.05;;;31.20;1.00;;;;;;6336201;22;20228;-78
2023/05/06 11:37:28;;;;;;;3.55;2.25;;;30.00;1.00;;;;;;6336654;22;20138;-78
2023/05/06 11:39:54;;;;;;;3.08;2.00;;;29.10;1.00;;;;;;6336031;22;20178;-77
2023/05/06 11:42:27;;;;;;;3.50;2.30;;;28.50;1.00;;;;;;6336413;22;20170;-78
2023/05/06 11:44:54;;;;;;;4.00;2.00;;;28.40;1.00;;;;;;6335846;22;20146;-76
2023/05/06 11:47:23;;;;;;;3.05;2.00;;;29.40;1.00;;;;;;6336306;22;20142;-78
2023/05/06 11:49:55;;;;;;;3.28;2.10;;;30.20;1.00;;;;;;6335882;22;20165;-76
2023/05/06 11:52:20;;;;;;;2.63;1.80;;;29.90;1.00;;;;;;6336242;22;20221;-76
2023/05/06 11:54:46;;;;;;;4.53;2.50;;;29.00;1.00;;;;;;6335854;22;20201;-76
2023/05/06 11:57:12;;;;;;;3.73;2.10;;;28.30;1.00;;;;;;6336727;22;20601;-76
2023/05/06 11:59:39;;;;;;;4.60;2.40;;;28.40;1.00;;;;;;6335792;22;20170;-76
2023/05/06 12:02:11;;;;;;;5.00;2.10;;;28.90;1.00;;;;;;6335812;22;20142;-77
2023/05/06 12:04:37;;;;;;;3.20;2.20;;;28.50;1.00;;;;;;6335954;22;20134;-77
2023/05/06 12:07:05;;;;;;;3.80;2.40;;;28.10;1.00;;;;;;6308665;22;20154;-76
2023/05/06 12:09:33;;;;;;;3.50;2.30;;;27.60;1.00;;;;;;6336134;22;20483;-76
2023/05/06 12:11:59;;;;;;;5.60;2.47;;;27.10;1.00;;;;;;6308403;22;20158;-76
2023/05/06 12:14:25;;;;;;;3.30;1.87;;;26.50;1.00;;;;;;6335799;22;20165;-78
2023/05/06 12:16:51;;;;;;;4.27;2.30;;;26.20;1.00;;;;;;6335898;22;20208;-75
2023/05/06 12:19:17;;;;;;;3.97;2.60;;;26.20;1.00;;;;;;6335892;22;20170;-75
2023/05/06 12:21:43;;;;;;;5.37;2.40;;;26.10;1.00;;;;;;6335723;22;20551;-75
2023/05/06 12:24:09;;;;;;;6.40;2.50;;;26.00;1.00;;;;;;6308189;22;20372;-76
2023/05/06 12:26:46;;;;;;;8.30;2.40;;;26.10;1.00;;;;;;6336319;22;20438;-75
2023/05/06 12:29:16;;;;;;;5.50;2.30;;;25.90;1.00;;;;;;6335728;22;20165;-76
2023/05/06 12:31:43;;;;;;;3.87;2.30;;;25.80;1.00;;;;;;6336005;22;20673;-76
2023/05/06 12:34:09;;;;;;;4.93;2.30;;;26.00;1.00;;;;;;6335668;22;20735;-75
2023/05/06 12:36:39;;;;;;;3.40;2.23;;;26.20;1.00;;;;;;6335794;22;20387;-75
2023/05/06 12:39:05;;;;;;;4.70;2.50;;;26.30;1.00;;;;;;6335345;22;20519;-74
2023/05/06 12:41:37;;;;;;;3.80;2.20;;;26.10;1.00;;;;;;6335767;22;20395;-76
2023/05/06 12:44:23;;;;;;;2.67;1.90;;;26.20;1.00;;;;;;6307605;22;20205;-77
2023/05/06 12:46:52;;;;;;;3.60;2.40;;;26.30;1.00;;;;;;6335378;22;20425;-74
2023/05/06 12:49:17;;;;;;;4.20;2.60;;;26.20;1.00;;;;;;6307497;22;20399;-76
2023/05/06 12:51:42;;;;;;;4.60;2.00;;;25.90;1.00;;;;;;6307777;22;20376;-77